Time;durP1;ratioP1;P1;durP2;ratioP2;P2;SDS_P1;SDS_P2;PMS_P1;PMS_P2;Temp;Humidity;BMP_temperature;BMP_pressure;BME280_temperature;BME280_humidity;BME280_pressure;Samples;Min_cycle;Max_cycle;Signal;HPM_P1;HPM_P2
2020/12/10 00:01:11;;;;;;;46.00;18.00;;;-0.90;99.90;;;;;;5098293;28;20381;-67
2020/12/10 00:03:38;;;;;;;45.67;18.20;;;-0.90;99.90;;;;;;5094016;28;20206;-66
2020/12/10 00:06:04;;;;;;;40.72;16.85;;;-1.00;99.90;;;;;;5099102;28;20202;-68
2020/12/10 00:08:31;;;;;;;32.20;18.90;;;-1.10;99.90;;;;;;5094443;28;20202;-68
2020/12/10 00:10:57;;;;;;;36.90;17.30;;;-1.10;99.90;;;;;;5097551;28;20222;-67
2020/12/10 00:13:24;;;;;;;45.70;18.88;;;-0.50;99.90;;;;;;5093877;28;20202;-67
2020/12/10 00:15:51;;;;;;;47.55;19.38;;;-1.00;99.90;;;;;;5099369;28;20380;-67
2020/12/10 00:18:17;;;;;;;39.80;17.98;;;-1.00;99.90;;;;;;5096383;28;20242;-66
2020/12/10 00:20:44;;;;;;;56.33;20.58;;;-1.00;99.90;;;;;;5093665;28;20595;-65
2020/12/10 00:23:10;;;;;;;38.40;16.83;;;-1.00;99.90;;;;;;5096310;28;20209;-66
2020/12/10 00:25:37;;;;;;;44.55;20.63;;;-1.10;99.90;;;;;;5098421;28;20236;-66
2020/12/10 00:28:04;;;;;;;42.03;17.15;;;-1.00;99.90;;;;;;5100987;28;20198;-65
2020/12/10 00:30:30;;;;;;;31.67;15.85;;;-1.00;99.90;;;;;;5095104;28;20227;-64
2020/12/10 00:32:57;;;;;;;39.00;19.38;;;-1.00;99.90;;;;;;5095065;28;20210;-65
2020/12/10 00:35:24;;;;;;;40.88;16.63;;;-1.00;99.90;;;;;;5090975;28;20214;-64
2020/12/10 00:37:51;;;;;;;29.73;16.20;;;-1.00;99.90;;;;;;5096195;28;20206;-65
2020/12/10 00:40:17;;;;;;;39.20;17.52;;;-1.10;99.90;;;;;;5100118;28;20457;-67
2020/12/10 00:42:44;;;;;;;36.08;16.83;;;-1.00;99.90;;;;;;5093467;28;20209;-65
2020/12/10 00:45:10;;;;;;;42.45;19.45;;;-0.40;99.90;;;;;;5099867;28;20206;-65
2020/12/10 00:47:37;;;;;;;39.97;16.13;;;-0.80;99.90;;;;;;5096607;28;20209;-65
2020/12/10 00:50:04;;;;;;;45.83;16.10;;;-0.80;99.90;;;;;;5073142;28;20203;-64
2020/12/10 00:52:30;;;;;;;42.55;18.65;;;-0.80;99.90;;;;;;5061579;28;20203;-65
2020/12/10 00:54:57;;;;;;;33.72;17.50;;;-0.90;99.90;;;;;;5070262;28;20730;-66
2020/12/10 00:57:23;;;;;;;48.95;18.23;;;-1.00;99.90;;;;;;5087220;28;20206;-66
2020/12/10 00:59:50;;;;;;;43.03;19.60;;;-0.50;99.90;;;;;;5078722;28;20223;-65
2020/12/10 01:02:17;;;;;;;36.40;19.73;;;-0.90;99.90;;;;;;5087720;28;20428;-64
2020/12/10 01:04:44;;;;;;;48.33;17.52;;;-0.20;99.90;;;;;;5082070;28;20308;-65
2020/12/10 01:07:10;;;;;;;44.72;19.48;;;-0.90;99.90;;;;;;5080483;28;20391;-65
2020/12/10 01:09:37;;;;;;;47.50;17.17;;;-0.90;99.90;;;;;;5082584;28;20203;-65
2020/12/10 01:12:04;;;;;;;49.38;20.98;;;-1.10;99.90;;;;;;5078196;28;20385;-65
2020/12/10 01:14:32;;;;;;;48.50;21.42;;;-1.00;99.90;;;;;;5086748;28;20424;-65
2020/12/10 01:17:00;;;;;;;38.28;17.67;;;-0.90;99.90;;;;;;5076900;28;20226;-65
2020/12/10 01:19:27;;;;;;;60.63;19.33;;;-0.30;99.90;;;;;;5087695;28;20234;-64
2020/12/10 01:21:54;;;;;;;42.60;16.83;;;-1.00;99.90;;;;;;5078834;28;20317;-64
2020/12/10 01:24:21;;;;;;;42.35;19.33;;;-1.00;99.90;;;;;;5085065;28;20210;-64
2020/12/10 01:26:47;;;;;;;50.45;20.75;;;-1.00;99.90;;;;;;5083843;28;20201;-65
2020/12/10 01:29:14;;;;;;;48.20;20.08;;;-0.80;99.90;;;;;;5086341;28;20206;-66
2020/12/10 01:31:40;;;;;;;40.88;18.23;;;-1.20;99.90;;;;;;5080693;28;20234;-65
2020/12/10 01:34:07;;;;;;;43.80;19.38;;;-1.20;99.90;;;;;;5086674;28;20262;-64
2020/12/10 01:36:34;;;;;;;38.28;16.88;;;-0.30;99.90;;;;;;5076092;28;20207;-65
2020/12/10 01:39:00;;;;;;;41.05;19.48;;;-1.10;99.90;;;;;;5085222;28;20213;-66
2020/12/10 01:41:33;;;;;;;44.05;18.63;;;-1.20;99.90;;;;;;5079179;28;20226;-64
2020/12/10 01:44:11;;;;;;;39.25;19.08;;;-1.10;99.90;;;;;;5082922;28;20252;-65
2020/12/10 01:46:39;;;;;;;47.88;19.52;;;-1.10;99.90;;;;;;5083874;28;20541;-65
2020/12/10 01:49:06;;;;;;;37.13;20.85;;;-0.20;99.90;;;;;;5079243;28;20497;-64
2020/12/10 01:51:34;;;;;;;40.22;19.20;;;-0.20;99.90;;;;;;5086649;28;20207;-65
2020/12/10 01:54:02;;;;;;;39.17;20.45;;;-0.40;99.90;;;;;;5082310;28;20201;-64
2020/12/10 01:56:29;;;;;;;50.03;21.02;;;-1.00;99.90;;;;;;5080183;28;20195;-63
2020/12/10 01:58:57;;;;;;;35.05;17.92;;;-1.00;99.90;;;;;;5081826;28;20218;-64
2020/12/10 02:01:24;;;;;;;49.50;19.35;;;-1.10;99.90;;;;;;5081109;28;20242;-64
2020/12/10 02:03:51;;;;;;;41.25;19.63;;;-1.10;99.90;;;;;;5078413;28;20517;-63
2020/12/10 02:06:19;;;;;;;38.67;20.77;;;-1.10;99.90;;;;;;5080373;28;20234;-64
2020/12/10 02:08:45;;;;;;;44.20;18.55;;;-1.30;99.90;;;;;;5093857;28;20203;-65
2020/12/10 02:11:12;;;;;;;44.35;17.80;;;-1.30;99.90;;;;;;5085155;28;20206;-64
2020/12/10 02:13:39;;;;;;;44.65;18.73;;;-1.10;99.90;;;;;;5080441;28;20255;-65
2020/12/10 02:16:07;;;;;;;56.28;21.83;;;-1.10;99.90;;;;;;5086322;28;20213;-65
2020/12/10 02:18:35;;;;;;;43.58;19.75;;;-1.10;99.90;;;;;;5080047;28;20230;-64
2020/12/10 02:21:02;;;;;;;56.15;22.88;;;-1.00;99.90;;;;;;5083172;28;20226;-64
2020/12/10 02:23:29;;;;;;;46.20;18.35;;;-0.60;99.90;;;;;;5082965;28;20202;-64
2020/12/10 02:25:56;;;;;;;44.63;21.80;;;-1.20;99.90;;;;;;5078548;28;20206;-63
2020/12/10 02:28:22;;;;;;;43.33;17.95;;;-1.10;99.90;;;;;;5079260;28;20241;-64
2020/12/10 02:30:49;;;;;;;46.92;22.20;;;-1.10;99.90;;;;;;5081236;28;20234;-63
2020/12/10 02:33:18;;;;;;;42.88;17.02;;;-1.20;99.90;;;;;;5075336;28;20214;-64
2020/12/10 02:35:45;;;;;;;30.85;17.13;;;-1.20;99.90;;;;;;5075447;28;20203;-64
2020/12/10 02:38:12;;;;;;;47.35;17.58;;;-1.30;99.90;;;;;;5086835;28;20206;-65
2020/12/10 02:40:45;;;;;;;43.88;18.00;;;-1.10;99.90;;;;;;5077369;28;21357;-64
2020/12/10 02:43:12;;;;;;;42.60;17.50;;;-1.20;99.90;;;;;;5082766;28;20643;-64
2020/12/10 02:45:40;;;;;;;43.20;20.05;;;-1.30;99.90;;;;;;5087662;28;20202;-65
2020/12/10 02:48:08;;;;;;;57.70;23.05;;;-1.10;99.90;;;;;;5094796;28;20627;-63
2020/12/10 02:50:36;;;;;;;34.63;16.58;;;-0.30;99.90;;;;;;5089777;28;20220;-64
2020/12/10 02:53:04;;;;;;;45.45;18.00;;;-1.20;99.90;;;;;;5094067;28;20203;-64
2020/12/10 02:55:30;;;;;;;33.10;16.85;;;-1.30;99.90;;;;;;5095112;28;20248;-64
2020/12/10 02:57:57;;;;;;;45.17;19.35;;;-0.70;99.90;;;;;;5096366;28;20210;-64
2020/12/10 03:00:24;;;;;;;39.92;19.35;;;-1.30;99.90;;;;;;5097748;28;20199;-66
2020/12/10 03:02:50;;;;;;;52.13;18.90;;;-0.70;99.90;;;;;;5095118;28;20212;-63
2020/12/10 03:05:17;;;;;;;43.50;22.33;;;-1.10;99.90;;;;;;5093597;28;20203;-63
2020/12/10 03:07:43;;;;;;;47.40;20.67;;;-1.20;99.90;;;;;;5087950;28;20244;-64
2020/12/10 03:10:10;;;;;;;47.97;18.63;;;-1.10;99.90;;;;;;5097003;28;20229;-64
2020/12/10 03:12:37;;;;;;;43.65;21.23;;;-1.10;99.90;;;;;;5095146;28;20206;-63
2020/12/10 03:15:03;;;;;;;51.97;20.15;;;-0.90;99.90;;;;;;5092357;28;20202;-63
2020/12/10 03:17:30;;;;;;;54.95;20.45;;;-1.20;99.90;;;;;;5089685;28;20330;-63
2020/12/10 03:19:57;;;;;;;35.80;17.55;;;-1.30;99.90;;;;;;5100416;28;20217;-64
2020/12/10 03:22:23;;;;;;;48.28;19.85;;;-1.30;99.90;;;;;;5097554;28;20237;-65
2020/12/10 03:24:50;;;;;;;46.40;17.58;;;-1.30;99.90;;;;;;5091916;28;20206;-65
2020/12/10 03:27:16;;;;;;;33.22;17.45;;;-0.80;99.90;;;;;;5094919;28;20388;-64
2020/12/10 03:29:43;;;;;;;43.72;19.58;;;-1.30;99.90;;;;;;5100844;28;20260;-64
2020/12/10 03:32:10;;;;;;;43.10;17.80;;;-1.40;99.90;;;;;;5097621;28;20221;-64
2020/12/10 03:34:37;;;;;;;40.97;17.60;;;-1.30;99.90;;;;;;5099684;28;20386;-64
2020/12/10 03:37:03;;;;;;;41.72;19.83;;;-1.20;99.90;;;;;;5099591;28;20396;-64
2020/12/10 03:39:30;;;;;;;45.28;19.85;;;-1.20;99.90;;;;;;5100067;28;20213;-64
2020/12/10 03:41:59;;;;;;;33.65;16.42;;;-1.20;99.90;;;;;;5094715;28;20258;-64
2020/12/10 03:44:27;;;;;;;40.30;16.55;;;-1.20;99.90;;;;;;5091508;28;20206;-64
2020/12/10 03:46:54;;;;;;;43.15;17.63;;;-1.20;99.90;;;;;;5092698;28;20206;-64
2020/12/10 03:49:21;;;;;;;35.20;16.60;;;-1.30;99.90;;;;;;5096319;28;20289;-63
2020/12/10 03:51:48;;;;;;;41.58;18.20;;;-1.20;99.90;;;;;;5096027;28;20501;-64
2020/12/10 03:54:15;;;;;;;45.35;18.73;;;-1.20;99.90;;;;;;5095098;28;20194;-64
2020/12/10 03:56:42;;;;;;;42.72;15.65;;;-1.10;99.90;;;;;;5096806;28;20373;-64
2020/12/10 03:59:09;;;;;;;41.70;19.85;;;-1.20;99.90;;;;;;5100212;28;20206;-66
2020/12/10 04:01:36;;;;;;;39.58;18.48;;;-1.20;99.90;;;;;;5089969;28;20419;-64
2020/12/10 04:04:03;;;;;;;43.20;17.42;;;-1.20;99.90;;;;;;5097208;28;20268;-64
2020/12/10 04:06:29;;;;;;;36.60;17.98;;;-1.20;99.90;;;;;;5097000;28;20198;-65
2020/12/10 04:08:56;;;;;;;55.65;22.50;;;-1.20;99.90;;;;;;5099280;28;20353;-64
2020/12/10 04:11:23;;;;;;;37.40;15.73;;;-1.20;99.90;;;;;;5097403;28;20210;-62
2020/12/10 04:13:50;;;;;;;31.10;16.58;;;-0.20;99.90;;;;;;5098635;28;20312;-64
2020/12/10 04:16:17;;;;;;;39.90;19.88;;;-1.20;99.90;;;;;;5100684;28;20273;-64
2020/12/10 04:18:44;;;;;;;39.33;17.52;;;-0.40;99.90;;;;;;5092998;28;20253;-64
2020/12/10 04:21:12;;;;;;;38.13;17.05;;;-1.30;99.90;;;;;;5094680;28;20223;-63
2020/12/10 04:23:39;;;;;;;71.20;22.08;;;-1.20;99.90;;;;;;5092062;28;20226;-63
2020/12/10 04:26:06;;;;;;;50.90;20.40;;;-1.10;99.90;;;;;;5095276;28;20195;-64
2020/12/10 04:28:32;;;;;;;38.30;18.58;;;-1.20;99.90;;;;;;5096955;28;20234;-64
2020/12/10 04:30:59;;;;;;;41.92;17.58;;;-1.10;99.90;;;;;;5093999;28;20229;-65
2020/12/10 04:33:26;;;;;;;42.97;16.52;;;-1.10;99.90;;;;;;5093854;28;20213;-64
2020/12/10 04:35:53;;;;;;;39.28;17.33;;;-1.20;99.90;;;;;;5096259;28;20485;-64
2020/12/10 04:38:19;;;;;;;30.55;14.68;;;-1.10;99.90;;;;;;5094919;28;20207;-65
2020/12/10 04:40:46;;;;;;;39.65;15.18;;;-1.10;99.90;;;;;;5094013;28;20226;-65
2020/12/10 04:43:14;;;;;;;38.28;15.25;;;-1.20;99.90;;;;;;5099231;28;20217;-64
2020/12/10 04:45:41;;;;;;;36.13;16.38;;;-1.30;99.90;;;;;;5099450;28;20206;-65
2020/12/10 04:48:08;;;;;;;39.65;17.95;;;-0.50;99.90;;;;;;5094460;28;20218;-64
2020/12/10 04:50:37;;;;;;;27.52;14.30;;;-0.70;99.90;;;;;;5094860;28;20202;-66
2020/12/10 04:53:04;;;;;;;31.20;15.60;;;-0.80;99.90;;;;;;5090890;28;20202;-65
2020/12/10 04:55:31;;;;;;;36.10;15.27;;;-1.20;99.90;;;;;;5095859;28;20202;-64
2020/12/10 04:57:59;;;;;;;31.65;15.40;;;-1.10;99.90;;;;;;5094305;28;20206;-64
2020/12/10 05:00:28;;;;;;;35.92;17.13;;;-1.10;99.90;;;;;;5092008;28;20225;-65
2020/12/10 05:02:55;;;;;;;34.45;15.85;;;-0.90;99.90;;;;;;5097517;28;20230;-64
2020/12/10 05:05:30;;;;;;;44.25;18.48;;;-0.90;99.90;;;;;;5100377;28;20218;-64
2020/12/10 05:07:59;;;;;;;37.10;15.48;;;-1.00;99.90;;;;;;5095453;28;20209;-64
2020/12/10 05:10:26;;;;;;;29.50;14.60;;;-1.00;99.90;;;;;;5093965;28;20255;-64
2020/12/10 05:13:10;;;;;;;27.85;14.65;;;-1.20;99.90;;;;;;5099436;28;20229;-64
2020/12/10 05:15:38;;;;;;;33.13;15.77;;;-1.30;99.90;;;;;;5095470;28;20201;-63
2020/12/10 05:18:12;;;;;;;28.90;14.70;;;-1.20;99.90;;;;;;5096282;28;20274;-63
2020/12/10 05:20:38;;;;;;;31.17;15.48;;;-1.20;99.90;;;;;;5098222;28;20206;-64
2020/12/10 05:23:07;;;;;;;30.15;14.73;;;-1.30;99.90;;;;;;5094021;28;20202;-65
2020/12/10 05:25:49;;;;;;;31.67;15.60;;;-1.30;99.90;;;;;;5096846;28;20206;-65
2020/12/10 05:28:17;;;;;;;40.13;16.77;;;-1.30;99.90;;;;;;5095865;28;20209;-64
2020/12/10 05:30:45;;;;;;;30.67;14.02;;;-1.30;99.90;;;;;;5093189;28;20237;-64
2020/12/10 05:33:14;;;;;;;38.17;14.95;;;-0.40;99.90;;;;;;5090321;28;20386;-64
2020/12/10 05:35:41;;;;;;;45.55;18.77;;;-0.70;99.90;;;;;;5093460;28;20599;-64
2020/12/10 05:38:12;;;;;;;31.00;13.30;;;-0.30;99.90;;;;;;5096584;28;20397;-63
2020/12/10 05:40:39;;;;;;;41.00;15.50;;;-1.30;99.90;;;;;;5095585;28;20546;-62
2020/12/10 05:43:07;;;;;;;34.22;15.57;;;-1.20;99.90;;;;;;5085584;28;20207;-62
2020/12/10 05:45:39;;;;;;;46.92;17.67;;;-1.20;99.90;;;;;;5088982;28;20208;-63
2020/12/10 05:48:06;;;;;;;40.30;18.55;;;-1.30;99.90;;;;;;5097315;28;20271;-63
2020/12/10 05:50:34;;;;;;;35.92;16.60;;;-1.20;99.90;;;;;;5092346;28;20202;-63
2020/12/10 05:53:08;;;;;;;36.15;15.38;;;-1.20;99.90;;;;;;5097457;28;20214;-63
2020/12/10 05:55:37;;;;;;;41.83;18.63;;;-1.10;99.90;;;;;;5089311;28;20221;-64
2020/12/10 05:58:05;;;;;;;41.72;18.80;;;-1.10;99.90;;;;;;5096547;28;20454;-63
2020/12/10 06:00:32;;;;;;;37.25;18.75;;;-1.00;99.90;;;;;;5093740;28;20202;-63
2020/12/10 06:03:00;;;;;;;31.60;15.77;;;-1.10;99.90;;;;;;5090522;28;20206;-63
2020/12/10 06:05:27;;;;;;;41.60;16.90;;;-1.10;99.90;;;;;;5093460;28;20211;-63
2020/12/10 06:08:02;;;;;;;40.78;16.42;;;-1.20;99.90;;;;;;5095374;28;20237;-63
2020/12/10 06:10:37;;;;;;;32.53;16.25;;;-1.30;99.90;;;;;;5090669;28;20220;-62
2020/12/10 06:13:04;;;;;;;42.72;19.23;;;-1.20;99.90;;;;;;5088981;28;20202;-63
2020/12/10 06:15:34;;;;;;;43.78;20.17;;;-0.50;99.90;;;;;;5089662;28;20213;-62
2020/12/10 06:18:13;;;;;;;44.13;16.73;;;-1.20;99.90;;;;;;5098143;28;20242;-63
2020/12/10 06:20:44;;;;;;;46.80;19.25;;;-1.30;99.90;;;;;;5090384;28;20396;-63
2020/12/10 06:23:23;;;;;;;39.53;16.38;;;-1.20;99.90;;;;;;5094722;28;20205;-62
2020/12/10 06:25:50;;;;;;;40.67;17.25;;;-1.10;99.90;;;;;;5096856;28;20220;-63
2020/12/10 06:28:19;;;;;;;27.85;16.92;;;-1.10;99.90;;;;;;5094917;28;20209;-63
2020/12/10 06:31:08;;;;;;;38.95;18.55;;;-1.20;99.90;;;;;;5097548;28;20225;-63
2020/12/10 06:33:41;;;;;;;36.13;16.27;;;-1.20;99.90;;;;;;5098398;28;20273;-62
2020/12/10 06:36:25;;;;;;;38.28;18.08;;;-1.20;99.90;;;;;;5105294;28;20213;-63
2020/12/10 06:38:54;;;;;;;26.90;13.77;;;-1.20;99.90;;;;;;5096201;28;20213;-62
2020/12/10 06:41:21;;;;;;;29.15;14.57;;;-1.20;99.90;;;;;;5090206;28;20222;-62
2020/12/10 06:43:48;;;;;;;42.03;17.08;;;-1.20;99.90;;;;;;5091662;28;20206;-62
2020/12/10 06:46:15;;;;;;;36.05;15.52;;;-1.20;99.90;;;;;;5083040;28;20203;-63
2020/12/10 06:48:44;;;;;;;44.58;17.52;;;-0.50;99.90;;;;;;5087328;28;20202;-63
2020/12/10 06:51:15;;;;;;;35.92;18.27;;;-0.40;99.90;;;;;;5062583;28;20217;-61
2020/12/10 06:54:00;;;;;;;38.85;18.02;;;-1.30;99.90;;;;;;5086613;28;20265;-62
2020/12/10 06:56:31;;;;;;;32.58;16.73;;;-0.90;99.90;;;;;;5098634;28;20646;-63
2020/12/10 06:59:01;;;;;;;38.03;17.85;;;-1.40;99.90;;;;;;5092639;28;20219;-63
2020/12/10 07:01:36;;;;;;;31.60;16.58;;;-1.50;99.90;;;;;;5092267;28;20236;-63
2020/12/10 07:07:11;;;;;;;29.95;15.27;;;-1.30;99.90;;;;;;5102409;28;20206;-63
2020/12/10 07:09:55;;;;;;;24.35;13.77;;;-1.40;99.90;;;;;;5092757;28;20216;-62
2020/12/10 07:12:27;;;;;;;33.25;15.50;;;-1.40;99.90;;;;;;5087624;28;20207;-62
2020/12/10 07:15:09;;;;;;;36.83;16.92;;;-1.10;99.90;;;;;;5088647;28;20208;-61
2020/12/10 07:17:36;;;;;;;28.38;14.65;;;-1.30;99.90;;;;;;5088819;28;20386;-62
2020/12/10 07:20:03;;;;;;;30.45;16.52;;;-1.20;99.90;;;;;;5088564;28;20509;-62
2020/12/10 07:22:30;;;;;;;40.08;16.13;;;-1.30;99.90;;;;;;5096826;28;20234;-62
2020/12/10 07:24:56;;;;;;;39.63;18.85;;;-1.10;99.90;;;;;;5102184;28;20434;-63
2020/12/10 07:27:26;;;;;;;29.20;14.98;;;-1.10;99.90;;;;;;5096572;28;20225;-62
2020/12/10 07:29:53;;;;;;;40.22;20.02;;;-0.80;99.90;;;;;;5095059;28;20219;-64
2020/12/10 07:32:19;;;;;;;36.17;19.40;;;-1.30;99.90;;;;;;5090851;28;20269;-63
2020/12/10 07:34:46;;;;;;;39.47;16.05;;;-1.30;99.90;;;;;;5098150;28;20516;-62
2020/12/10 07:37:14;;;;;;;35.13;15.35;;;-1.40;99.90;;;;;;5101186;28;20207;-62
2020/12/10 07:39:41;;;;;;;32.30;14.50;;;-1.20;99.90;;;;;;5094279;28;20202;-63
2020/12/10 07:42:08;;;;;;;30.60;13.15;;;-1.20;99.90;;;;;;5098286;28;20226;-63
2020/12/10 07:44:35;;;;;;;28.50;14.23;;;-1.30;99.90;;;;;;5098550;28;20206;-63
2020/12/10 07:47:10;;;;;;;34.60;13.82;;;-1.30;99.90;;;;;;5094977;28;20218;-63
2020/12/10 07:49:37;;;;;;;34.97;16.15;;;-1.40;99.90;;;;;;5097940;28;20491;-62
2020/12/10 07:52:05;;;;;;;32.13;16.42;;;-1.30;99.90;;;;;;5093382;28;20229;-61
2020/12/10 07:54:47;;;;;;;38.45;16.52;;;-1.20;99.90;;;;;;5091092;28;20213;-63
2020/12/10 07:57:41;;;;;;;29.20;14.68;;;-1.30;99.90;;;;;;5088339;28;20230;-63
2020/12/10 08:00:19;;;;;;;43.95;18.10;;;-1.10;99.90;;;;;;5071855;28;20225;-62
2020/12/10 08:02:45;;;;;;;27.85;14.70;;;-1.30;99.90;;;;;;5087577;28;20218;-62
2020/12/10 08:05:17;;;;;;;41.35;18.50;;;-1.40;99.90;;;;;;5084388;28;20209;-63
2020/12/10 08:07:52;;;;;;;42.03;17.58;;;-1.40;99.90;;;;;;5100946;28;20214;-63
2020/12/10 08:10:24;;;;;;;33.30;16.02;;;-1.40;99.90;;;;;;5076206;28;20303;-62
2020/12/10 08:13:20;;;;;;;30.15;14.32;;;-1.50;99.90;;;;;;5092847;28;20210;-63
2020/12/10 08:15:48;;;;;;;24.42;12.82;;;-1.50;99.90;;;;;;5097598;28;20531;-67
2020/12/10 08:18:18;;;;;;;30.20;12.57;;;-0.50;99.90;;;;;;5090407;28;20329;-62
2020/12/10 08:20:49;;;;;;;33.40;13.57;;;-1.40;99.90;;;;;;5097455;28;20273;-63
2020/12/10 08:23:18;;;;;;;31.50;15.20;;;-1.40;99.90;;;;;;5090007;28;20206;-62
2020/12/10 08:25:46;;;;;;;29.35;14.30;;;-1.20;99.90;;;;;;5083330;28;20207;-62
2020/12/10 08:28:14;;;;;;;33.40;14.27;;;-1.20;99.90;;;;;;5100409;28;20723;-63
2020/12/10 08:30:53;;;;;;;30.23;17.13;;;-1.20;99.90;;;;;;5093224;28;20222;-64
2020/12/10 08:33:21;;;;;;;28.70;12.30;;;-1.10;99.90;;;;;;5096249;28;20214;-62
2020/12/10 08:35:47;;;;;;;27.65;12.68;;;-1.20;99.90;;;;;;5100402;28;20245;-64
2020/12/10 08:38:16;;;;;;;23.25;13.05;;;-1.30;99.90;;;;;;5091009;28;20206;-63
2020/12/10 08:40:43;;;;;;;31.38;15.00;;;-1.00;99.90;;;;;;5090874;28;20475;-63
2020/12/10 08:43:15;;;;;;;31.02;14.82;;;-1.30;99.90;;;;;;5088717;28;20232;-62
2020/12/10 08:45:47;;;;;;;32.70;15.55;;;-1.30;99.90;;;;;;5094154;28;20282;-62
2020/12/10 08:48:24;;;;;;;36.95;16.50;;;-1.20;99.90;;;;;;5082528;28;20210;-64
2020/12/10 08:50:53;;;;;;;24.25;13.07;;;-1.20;99.90;;;;;;5101089;28;20194;-63
2020/12/10 08:53:20;;;;;;;33.35;15.75;;;-1.20;99.90;;;;;;5080435;28;20203;-63
2020/12/10 08:55:54;;;;;;;33.92;17.15;;;-1.10;99.90;;;;;;5082562;28;20218;-63
2020/12/10 08:58:26;;;;;;;18.48;11.05;;;-1.20;99.90;;;;;;5096108;28;20363;-63
2020/12/10 09:00:54;;;;;;;34.47;15.27;;;-1.20;99.90;;;;;;5083351;28;20199;-62
2020/12/10 09:03:23;;;;;;;41.97;16.80;;;-1.30;99.90;;;;;;5087239;28;20481;-62
2020/12/10 09:05:51;;;;;;;39.50;14.40;;;-1.20;99.90;;;;;;5092619;28;20207;-64
2020/12/10 09:08:18;;;;;;;29.20;14.98;;;-1.30;99.90;;;;;;5092952;28;20210;-62
2020/12/10 09:10:45;;;;;;;30.90;13.82;;;-1.30;99.90;;;;;;5085734;28;20282;-62
2020/12/10 09:13:11;;;;;;;32.22;15.77;;;-1.00;99.90;;;;;;5094843;28;20205;-63
2020/12/10 09:15:42;;;;;;;29.35;14.07;;;-1.30;99.90;;;;;;5090999;28;20209;-62
2020/12/10 09:18:11;;;;;;;34.90;15.43;;;-1.30;99.90;;;;;;5093851;28;20235;-63
2020/12/10 09:20:38;;;;;;;30.00;15.38;;;-1.30;99.90;;;;;;5047771;28;20209;-63
2020/12/10 09:23:05;;;;;;;35.97;15.88;;;-1.20;99.90;;;;;;5050417;28;20241;-63
2020/12/10 09:25:34;;;;;;;43.00;16.48;;;-1.10;99.90;;;;;;5095633;28;20233;-62
2020/12/10 09:28:01;;;;;;;34.45;15.13;;;-1.10;99.90;;;;;;5098235;28;20237;-62
2020/12/10 09:30:28;;;;;;;30.45;13.93;;;-1.10;99.90;;;;;;5089449;28;20237;-62
2020/12/10 09:32:55;;;;;;;34.15;15.50;;;-1.20;99.90;;;;;;5094113;28;20214;-63
2020/12/10 09:35:21;;;;;;;30.98;16.35;;;-1.10;99.90;;;;;;5094584;28;20281;-63
2020/12/10 09:37:49;;;;;;;43.38;15.48;;;-1.10;99.90;;;;;;5087471;28;20273;-63
2020/12/10 09:40:16;;;;;;;35.80;15.32;;;-1.10;99.90;;;;;;5098794;28;20214;-63
2020/12/10 09:42:48;;;;;;;34.20;14.18;;;-1.20;99.90;;;;;;5078258;28;20593;-62
2020/12/10 09:45:15;;;;;;;35.35;14.90;;;-1.20;99.90;;;;;;5086131;28;20206;-63
2020/12/10 09:47:45;;;;;;;35.60;17.10;;;-1.30;99.90;;;;;;5084370;28;20207;-63
2020/12/10 09:53:31;;;;;;;34.75;16.55;;;-1.10;99.90;;;;;;5082177;28;20210;-63
2020/12/10 09:56:22;;;;;;;36.90;15.45;;;-1.10;99.90;;;;;;5084522;28;20501;-63
2020/12/10 09:58:59;;;;;;;36.25;16.27;;;-1.00;99.90;;;;;;5080797;28;20298;-62
2020/12/10 10:01:26;;;;;;;35.05;16.15;;;-1.10;99.90;;;;;;5086438;28;20230;-63
2020/12/10 10:03:54;;;;;;;31.00;13.40;;;-1.10;99.90;;;;;;5097677;28;20206;-62
2020/12/10 10:06:21;;;;;;;35.40;17.17;;;-1.10;99.90;;;;;;5085972;28;20390;-62
2020/12/10 10:08:47;;;;;;;27.55;13.82;;;-1.00;99.90;;;;;;5078163;28;20203;-63
2020/12/10 10:11:15;;;;;;;33.80;16.10;;;-1.00;99.90;;;;;;5091657;28;20248;-62
2020/12/10 10:13:41;;;;;;;34.35;16.67;;;-0.80;99.90;;;;;;5084663;28;20225;-64
2020/12/10 10:16:08;;;;;;;40.75;17.00;;;-0.90;99.90;;;;;;5098500;28;20545;-63
2020/12/10 10:18:35;;;;;;;41.45;17.35;;;-0.80;99.90;;;;;;5083415;28;20269;-63
2020/12/10 10:21:02;;;;;;;41.30;15.90;;;-0.70;99.90;;;;;;5097775;28;20431;-63
2020/12/10 10:23:29;;;;;;;43.00;16.00;;;-0.90;99.90;;;;;;5086932;28;20635;-64
2020/12/10 10:25:55;;;;;;;47.08;17.83;;;-0.20;99.90;;;;;;5095654;28;20214;-63
2020/12/10 10:28:22;;;;;;;44.22;15.55;;;-1.10;99.90;;;;;;5092638;28;20237;-63
2020/12/10 10:30:49;;;;;;;34.22;18.75;;;-1.10;99.90;;;;;;5097451;28;20214;-63
2020/12/10 10:33:22;;;;;;;30.35;12.55;;;-0.90;99.90;;;;;;5098151;28;20206;-62
2020/12/10 10:36:05;;;;;;;29.08;16.25;;;-0.80;99.90;;;;;;5085827;28;20202;-62
2020/12/10 10:38:31;;;;;;;43.95;19.33;;;-0.40;99.90;;;;;;5094158;28;20211;-62
2020/12/10 10:40:58;;;;;;;30.55;15.55;;;-0.70;99.90;;;;;;5079654;28;20206;-63
2020/12/10 10:43:25;;;;;;;32.42;17.88;;;-1.00;99.90;;;;;;5078976;28;20214;-63
2020/12/10 10:45:52;;;;;;;31.50;17.42;;;-1.00;99.90;;;;;;5096700;28;20405;-62
2020/12/10 10:48:18;;;;;;;30.73;16.85;;;-0.90;99.90;;;;;;5085578;28;20397;-63
2020/12/10 10:50:45;;;;;;;52.83;16.77;;;-1.10;99.90;;;;;;5098123;28;20233;-63
2020/12/10 10:53:12;;;;;;;32.03;15.07;;;-0.90;99.90;;;;;;5094389;28;20259;-63
2020/12/10 10:55:38;;;;;;;33.92;16.90;;;-0.70;99.90;;;;;;5096121;28;20523;-63
2020/12/10 10:58:05;;;;;;;31.17;14.93;;;-0.90;99.90;;;;;;5084997;28;20275;-62
2020/12/10 11:00:32;;;;;;;32.03;15.40;;;-1.00;99.90;;;;;;5093748;28;20381;-63
2020/12/10 11:02:59;;;;;;;26.58;12.40;;;-1.00;99.90;;;;;;5095425;28;20249;-63
2020/12/10 11:05:26;;;;;;;34.83;15.40;;;-1.00;99.90;;;;;;5097301;28;20262;-62
2020/12/10 11:07:53;;;;;;;31.00;14.50;;;-0.90;99.90;;;;;;5098388;28;20210;-62
2020/12/10 11:10:22;;;;;;;25.85;16.20;;;-0.80;99.90;;;;;;5092426;28;20420;-63
2020/12/10 11:12:50;;;;;;;41.13;18.92;;;-0.70;99.90;;;;;;5097730;28;20218;-63
2020/12/10 11:15:17;;;;;;;38.33;14.52;;;-0.80;99.90;;;;;;5094558;28;20253;-63
2020/12/10 11:17:45;;;;;;;34.13;13.93;;;-0.80;99.90;;;;;;5094562;28;20451;-62
2020/12/10 11:20:15;;;;;;;24.98;13.75;;;-0.90;99.90;;;;;;5083392;28;20550;-62
2020/12/10 11:22:42;;;;;;;28.63;13.77;;;-0.80;99.90;;;;;;5084206;28;20593;-63
2020/12/10 11:25:08;;;;;;;41.28;15.00;;;-0.80;99.90;;;;;;5096377;28;20206;-63
2020/12/10 11:27:35;;;;;;;27.50;17.17;;;-0.70;99.90;;;;;;5077910;28;20214;-64
2020/12/10 11:30:06;;;;;;;23.27;15.10;;;-0.70;99.90;;;;;;5082658;28;20219;-63
2020/12/10 11:32:33;;;;;;;22.08;12.70;;;-0.80;99.90;;;;;;5086547;28;20210;-62
2020/12/10 11:35:00;;;;;;;24.27;13.55;;;-0.70;99.90;;;;;;5091671;28;20241;-64
2020/12/10 11:37:27;;;;;;;27.13;13.35;;;-0.70;99.90;;;;;;5097029;28;20246;-62
2020/12/10 11:39:54;;;;;;;40.80;15.43;;;-0.80;99.90;;;;;;5093326;28;20237;-64
2020/12/10 11:42:22;;;;;;;38.78;18.85;;;-0.70;99.90;;;;;;5093959;28;20252;-68
2020/12/10 11:44:49;;;;;;;35.08;15.23;;;-0.70;99.90;;;;;;5099186;28;20233;-62
2020/12/10 11:47:16;;;;;;;39.65;17.10;;;-0.80;99.90;;;;;;5097609;28;20454;-64
2020/12/10 11:49:43;;;;;;;31.38;13.55;;;-0.90;99.90;;;;;;5098307;28;20256;-63
2020/12/10 11:52:09;;;;;;;30.23;15.90;;;-0.90;99.90;;;;;;5094908;28;20399;-63
2020/12/10 11:54:36;;;;;;;25.15;13.88;;;-0.90;99.90;;;;;;5096293;28;20253;-63
2020/12/10 11:57:03;;;;;;;45.30;17.80;;;-0.90;99.90;;;;;;5097789;28;20209;-62
2020/12/10 11:59:29;;;;;;;26.88;14.52;;;-0.90;99.90;;;;;;5093941;28;20210;-63
2020/12/10 12:01:56;;;;;;;28.80;14.68;;;-0.90;99.90;;;;;;5092369;28;20227;-63
2020/12/10 12:04:22;;;;;;;29.35;14.48;;;-0.80;99.90;;;;;;5093617;28;20206;-63
2020/12/10 12:06:49;;;;;;;36.13;14.48;;;-0.80;99.90;;;;;;5097848;28;20221;-63
2020/12/10 12:09:16;;;;;;;26.08;13.23;;;-0.60;99.90;;;;;;5089116;28;20267;-63
2020/12/10 12:11:42;;;;;;;24.75;13.15;;;-0.90;99.90;;;;;;5086947;28;20248;-63
2020/12/10 12:14:09;;;;;;;26.13;14.15;;;-0.90;99.90;;;;;;5091823;28;20257;-63
2020/12/10 12:16:35;;;;;;;25.45;12.40;;;-0.60;99.90;;;;;;5091580;28;20209;-62
2020/12/10 12:19:02;;;;;;;23.35;12.65;;;-1.10;99.90;;;;;;5090421;28;20242;-63
2020/12/10 12:21:29;;;;;;;21.90;14.57;;;-1.00;99.90;;;;;;5097816;28;20233;-63
2020/12/10 12:23:57;;;;;;;23.55;13.48;;;-0.90;99.90;;;;;;5089918;28;20229;-63
2020/12/10 12:26:32;;;;;;;23.92;12.32;;;-1.00;99.90;;;;;;5089177;28;20210;-63
2020/12/10 12:28:59;;;;;;;21.85;12.10;;;-0.90;99.90;;;;;;5088910;28;20237;-62
2020/12/10 12:31:33;;;;;;;35.70;13.52;;;-0.90;99.90;;;;;;5099090;28;20244;-63
2020/12/10 12:34:05;;;;;;;26.77;14.25;;;-0.90;99.90;;;;;;5085744;28;20211;-63
2020/12/10 12:36:32;;;;;;;28.63;13.70;;;-0.90;99.90;;;;;;5089596;28;20516;-63
2020/12/10 12:38:59;;;;;;;33.03;15.38;;;-0.90;99.90;;;;;;5096229;28;20209;-63
2020/12/10 12:41:30;;;;;;;30.58;12.82;;;-0.80;99.90;;;;;;5080234;28;20242;-63